Judi M. — WCX8376 — position and weather

sailwx.info

Track history (hours):
 
Tides and Currents Weather Stations Pressure Air Temp Water Temp Dewpoint Dewpoint Depression Visibility Wind Speed Wind Dir Waves Ship Positions

Judi M.

Owner: MANKE TUG & BARGE CO INC, SHELTON, WA. More information available from US FCC via Universal Licensing System and Coast Guard Vessel Documentation Center.

Last reported at 2015-May-22 05:33 UTC. Time now 2015-May-22 19:09 UTC.
Position N 47°34' W 122°22'.

Length 29 m; draft 4 m.

Type: Tow > 200 m length. MMSI: 366740920.

Date/timePositionNaut miles runAvg speedWind from/ knotsBaromVisibWave heightAir tempDewpointWater temp
2015-May-22 05:33N 47°34' W 122°22'0 0.0
2015-May-22 05:29N 47°34' W 122°22'2 1.8
2015-May-22 04:33N 47°36' W 122°23'0 3.5
2015-May-22 04:29N 47°36' W 122°23'6 6.5
2015-May-22 03:33N 47°41' W 122°28'0 0.0
2015-May-22 03:33N 47°41' W 122°28'7 7.0
2015-May-22 02:33N 47°48' W 122°28'033.8
2015-May-22 02:33N 47°48' W 122°28'8 7.8
2015-May-22 01:33N 47°56' W 122°31'0 0.0
2015-May-22 01:33N 47°56' W 122°31'10 9.1
2015-May-22 00:26N 48°04' W 122°40'5 0.8
2015-May-21 17:16N 48°06' W 122°48'5 0.9
2015-May-21 11:14N 48°07' W 122°40'5 7.1
2015-May-21 10:34N 48°03' W 122°38'5 7.0
2015-May-21 09:51N 47°58' W 122°34'2 7.8
2015-May-21 09:33N 47°57' W 122°31'3 7.7
2015-May-21 09:10N 47°55' W 122°28'5 8.1
2015-May-21 08:33N 47°50' W 122°27'0 7.7
2015-May-21 08:30N 47°49' W 122°27'7 7.9
2015-May-21 07:33N 47°42' W 122°27'0 7.9
2015-May-21 07:30N 47°41' W 122°27'7 7.0
2015-May-21 06:33N 47°36' W 122°22'0 6.9
2015-May-21 06:30N 47°35' W 122°22'1 1.9
2015-May-21 06:04N 47°34' W 122°22'0 0.0
2015-May-21 05:33N 47°34' W 122°22'0 0.0
2015-May-21 04:33N 47°34' W 122°22'0 0.0
2015-May-21 04:29N 47°34' W 122°22'0 0.0
2015-May-21 03:34N 47°34' W 122°22'0 0.0
2015-May-21 03:29N 47°34' W 122°22'0 0.0
2015-May-21 02:21N 47°34' W 122°22'0 0.0
2015-May-21 02:18N 47°34' W 122°22'0 0.0
2015-May-21 01:34N 47°34' W 122°22'0 0.0
2015-May-21 01:27N 47°34' W 122°22'0 0.0
2015-May-21 00:33N 47°34' W 122°22'0 0.0
2015-May-21 00:32N 47°34' W 122°22'0 0.0
2015-May-20 23:33N 47°34' W 122°22'0 0.0
2015-May-20 23:32N 47°34' W 122°22'0 0.0
2015-May-20 22:33N 47°34' W 122°22'0 0.0
2015-May-20 22:31N 47°34' W 122°22'0 0.0
2015-May-20 21:33N 47°34' W 122°22'0 0.0
2015-May-20 21:31N 47°34' W 122°22'0 0.0
2015-May-20 20:32N 47°34' W 122°22'0 0.0
2015-May-20 20:30N 47°34' W 122°22'0 0.0
2015-May-20 19:32N 47°34' W 122°22'0 0.0
2015-May-20 19:29N 47°34' W 122°22'0 0.0
2015-May-20 18:33N 47°34' W 122°22'0 0.0
2015-May-20 18:30N 47°34' W 122°22'0 0.0
2015-May-20 17:34N 47°34' W 122°22'0 0.0
2015-May-20 17:19N 47°34' W 122°22'0 0.0
2015-May-20 16:34N 47°34' W 122°22'0 0.0
2015-May-20 16:34N 47°34' W 122°22'0 0.0
2015-May-20 15:33N 47°34' W 122°22'0 0.0
2015-May-20 15:33N 47°34' W 122°22'0 0.0
2015-May-20 14:34N 47°34' W 122°22'0 0.0
2015-May-20 14:33N 47°34' W 122°22'0 0.0
2015-May-20 13:33N 47°34' W 122°22'0 0.0
2015-May-20 13:33N 47°34' W 122°22'0 0.0
2015-May-20 12:31N 47°34' W 122°22'0 0.0
2015-May-20 12:17N 47°34' W 122°22'0 0.0
2015-May-20 10:33N 47°34' W 122°22'0 0.0
2015-May-20 10:30N 47°34' W 122°22'0 0.0
2015-May-20 09:34N 47°34' W 122°22'0 0.0
2015-May-20 09:30N 47°34' W 122°22'0 0.0
2015-May-20 08:33N 47°34' W 122°22'0 0.0
2015-May-20 08:29N 47°34' W 122°22'0 0.0
2015-May-20 07:33N 47°34' W 122°22'0 0.0
2015-May-20 07:29N 47°34' W 122°22'0 0.0
2015-May-20 06:33N 47°34' W 122°22'0 0.0
2015-May-20 06:33N 47°34' W 122°22'0 0.0
2015-May-20 06:13N 47°34' W 122°22'0 0.0
2015-May-20 05:33N 47°34' W 122°22'0 0.0
2015-May-20 04:33N 47°34' W 122°22'0 0.0
2015-May-20 04:33N 47°34' W 122°22'0 0.0
2015-May-20 03:33N 47°34' W 122°22'0 0.0
2015-May-20 03:33N 47°34' W 122°22'0 0.0
2015-May-20 02:34N 47°34' W 122°22'0 0.0
2015-May-20 02:33N 47°34' W 122°22'0 0.0
2015-May-20 01:33N 47°34' W 122°22'0 0.0
2015-May-20 01:33N 47°34' W 122°22'1 1.3
2015-May-20 00:33N 47°36' W 122°22'0 2.9
2015-May-20 00:32N 47°36' W 122°22'6 5.9
2015-May-19 23:34N 47°40' W 122°28'0 7.0
2015-May-19 23:32N 47°40' W 122°28'7 7.3
2015-May-19 22:34N 47°47' W 122°27'0 7.5
2015-May-19 22:31N 47°47' W 122°27'7 7.4
2015-May-19 21:34N 47°54' W 122°30'7 7.4
2015-May-19 20:33N 47°60' W 122°37'13 5.5
2015-May-19 18:06N 48°11' W 122°48'2 3.2
2015-May-19 17:30N 48°13' W 122°50'8 7.3
2015-May-19 16:23N 48°21' W 122°47'7 8.7
2015-May-19 15:34N 48°28' W 122°45'9 9.3
2015-May-19 14:33N 48°37' W 122°45'7 7.1
2015-May-19 13:34N 48°44' W 122°46'7 7.1
2015-May-19 12:33N 48°48' W 122°55'8 7.8
2015-May-19 11:34N 48°52' W 123°05'7 7.3
2015-May-19 10:33N 48°57' W 123°14'7 6.9
2015-May-19 09:34N 49°01' W 123°21'7 6.8
2015-May-19 08:33N 49°08' W 123°26'8 7.9
2015-May-19 07:34N 49°15' W 123°27'8 7.5
2015-May-19 06:33N 49°23' W 123°26'6 6.4
2015-May-19 05:34N 49°29' W 123°28'2 0.4
2015-May-18 23:28N 49°31' W 123°29'0 0.0
2015-May-18 20:05N 49°31' W 123°29'0 0.0
2015-May-18 19:26N 49°31' W 123°29'0 0.0
2015-May-18 18:32N 49°31' W 123°29'0 0.0
2015-May-18 17:33N 49°31' W 123°29'0 0.0
2015-May-18 16:29N 49°31' W 123°29'0 0.0
2015-May-18 15:33N 49°31' W 123°29'0 0.0
2015-May-18 14:27N 49°31' W 123°29'3 3.7
2015-May-18 13:33N 49°28' W 123°28'6 6.4
2015-May-18 12:32N 49°21' W 123°26'10 8.0
2015-May-18 11:21N 49°12' W 123°28'9 7.5
2015-May-18 10:10N 49°05' W 123°20'13 7.9
2015-May-18 08:33N 48°56' W 123°07'8 8.0
2015-May-18 07:33N 48°51' W 122°57'8 7.9
2015-May-18 06:34N 48°46' W 122°47'7 7.5
2015-May-18 05:34N 48°39' W 122°43'6 6.3
2015-May-18 04:34N 48°33' W 122°45'8 7.7
2015-May-18 03:33N 48°25' W 122°44'22 7.1
2015-May-18 00:32N 48°04' W 122°38'6 7.0
2015-May-17 23:38N 47°58' W 122°34'1 7.1
2015-May-17 23:33N 47°58' W 122°34'0 0.0
2015-May-17 23:33N 47°58' W 122°34'7 7.3
2015-May-17 22:34N 47°52' W 122°28'1 7.7
2015-May-17 22:28N 47°51' W 122°27'8 8.5
2015-May-17 21:34N 47°44' W 122°26'0 7.9
2015-May-17 21:32N 47°44' W 122°26'7 7.2
2015-May-17 20:34N 47°37' W 122°23'0 7.4
2015-May-17 20:32N 47°37' W 122°23'2 0.1
2015-May-16 05:33N 47°34' W 122°22'0 0.0
2015-May-16 05:32N 47°34' W 122°22'3 2.8
2015-May-16 04:33N 47°37' W 122°24'0 6.0
2015-May-16 04:31N 47°37' W 122°24'6 5.8
2015-May-16 03:33N 47°42' W 122°28'0 6.5
2015-May-16 03:31N 47°42' W 122°28'6 6.3
2015-May-16 02:33N 47°48' W 122°28'0 6.5
2015-May-16 02:31N 47°48' W 122°28'6 6.4
2015-May-16 01:33N 47°54' W 122°30'1 5.2
2015-May-16 01:19N 47°55' W 122°31'4 5.5
2015-May-16 00:33N 47°58' W 122°36'6 5.9
2015-May-15 23:33N 48°04' W 122°39'3 0.3
2015-May-15 11:17N 48°07' W 122°40'6 7.8
2015-May-15 10:29N 48°01' W 122°37'7 7.2
2015-May-15 09:33N 47°56' W 122°30'8 7.6
2015-May-15 08:33N 47°49' W 122°27'8 7.6
2015-May-15 07:33N 47°41' W 122°27'7 6.8
2015-May-15 06:33N 47°36' W 122°22'  
2015-May-12 10:14N 47°34' W 122°22'0 0.0
2015-May-12 10:11N 47°34' W 122°22'1 2.2
2015-May-12 09:33N 47°36' W 122°22'0 2.7
2015-May-12 09:30N 47°36' W 122°23'6 6.4
2015-May-12 08:34N 47°40' W 122°28'0 6.2
2015-May-12 08:30N 47°41' W 122°28'7 7.2
2015-May-12 07:34N 47°48' W 122°28'0 6.9
2015-May-12 07:30N 47°48' W 122°28'7 7.5
2015-May-12 06:34N 47°55' W 122°30'0 7.0
2015-May-12 06:30N 47°55' W 122°31'  
Track history (hours):
 
Tides and Currents Weather Stations Pressure Air Temp Water Temp Dewpoint Dewpoint Depression Visibility Wind Speed Wind Dir Waves Ship Positions

Judi M.

Owner: MANKE TUG & BARGE CO INC, SHELTON, WA. More information available from US FCC via Universal Licensing System and Coast Guard Vessel Documentation Center.

Last reported at 2015-May-22 05:33 UTC. Time now 2015-May-22 19:09 UTC.
Position N 47°34' W 122°22'.

Length 29 m; draft 4 m.

Type: Tow > 200 m length. MMSI: 366740920.

Date/timePositionNaut miles runAvg speedWind from/ knotsBaromVisibWave heightAir tempDewpointWater temp
2015-May-22 05:33N 47°34' W 122°22'0 0.0
2015-May-22 05:29N 47°34' W 122°22'2 1.8
2015-May-22 04:33N 47°36' W 122°23'0 3.5
2015-May-22 04:29N 47°36' W 122°23'6 6.5
2015-May-22 03:33N 47°41' W 122°28'0 0.0
2015-May-22 03:33N 47°41' W 122°28'7 7.0
2015-May-22 02:33N 47°48' W 122°28'033.8
2015-May-22 02:33N 47°48' W 122°28'8 7.8
2015-May-22 01:33N 47°56' W 122°31'0 0.0
2015-May-22 01:33N 47°56' W 122°31'10 9.1
2015-May-22 00:26N 48°04' W 122°40'5 0.8
2015-May-21 17:16N 48°06' W 122°48'5 0.9
2015-May-21 11:14N 48°07' W 122°40'5 7.1
2015-May-21 10:34N 48°03' W 122°38'5 7.0
2015-May-21 09:51N 47°58' W 122°34'2 7.8
2015-May-21 09:33N 47°57' W 122°31'3 7.7
2015-May-21 09:10N 47°55' W 122°28'5 8.1
2015-May-21 08:33N 47°50' W 122°27'0 7.7
2015-May-21 08:30N 47°49' W 122°27'7 7.9
2015-May-21 07:33N 47°42' W 122°27'0 7.9
2015-May-21 07:30N 47°41' W 122°27'7 7.0
2015-May-21 06:33N 47°36' W 122°22'0 6.9
2015-May-21 06:30N 47°35' W 122°22'1 1.9
2015-May-21 06:04N 47°34' W 122°22'0 0.0
2015-May-21 05:33N 47°34' W 122°22'0 0.0
2015-May-21 04:33N 47°34' W 122°22'0 0.0
2015-May-21 04:29N 47°34' W 122°22'0 0.0
2015-May-21 03:34N 47°34' W 122°22'0 0.0
2015-May-21 03:29N 47°34' W 122°22'0 0.0
2015-May-21 02:21N 47°34' W 122°22'0 0.0
2015-May-21 02:18N 47°34' W 122°22'0 0.0
2015-May-21 01:34N 47°34' W 122°22'0 0.0
2015-May-21 01:27N 47°34' W 122°22'0 0.0
2015-May-21 00:33N 47°34' W 122°22'0 0.0
2015-May-21 00:32N 47°34' W 122°22'0 0.0
2015-May-20 23:33N 47°34' W 122°22'0 0.0
2015-May-20 23:32N 47°34' W 122°22'0 0.0
2015-May-20 22:33N 47°34' W 122°22'0 0.0
2015-May-20 22:31N 47°34' W 122°22'0 0.0
2015-May-20 21:33N 47°34' W 122°22'0 0.0
2015-May-20 21:31N 47°34' W 122°22'0 0.0
2015-May-20 20:32N 47°34' W 122°22'0 0.0
2015-May-20 20:30N 47°34' W 122°22'0 0.0
2015-May-20 19:32N 47°34' W 122°22'0 0.0
2015-May-20 19:29N 47°34' W 122°22'0 0.0
2015-May-20 18:33N 47°34' W 122°22'0 0.0
2015-May-20 18:30N 47°34' W 122°22'0 0.0
2015-May-20 17:34N 47°34' W 122°22'0 0.0
2015-May-20 17:19N 47°34' W 122°22'0 0.0
2015-May-20 16:34N 47°34' W 122°22'0 0.0
2015-May-20 16:34N 47°34' W 122°22'0 0.0
2015-May-20 15:33N 47°34' W 122°22'0 0.0
2015-May-20 15:33N 47°34' W 122°22'0 0.0
2015-May-20 14:34N 47°34' W 122°22'0 0.0
2015-May-20 14:33N 47°34' W 122°22'0 0.0
2015-May-20 13:33N 47°34' W 122°22'0 0.0
2015-May-20 13:33N 47°34' W 122°22'0 0.0
2015-May-20 12:31N 47°34' W 122°22'0 0.0
2015-May-20 12:17N 47°34' W 122°22'0 0.0
2015-May-20 10:33N 47°34' W 122°22'0 0.0
2015-May-20 10:30N 47°34' W 122°22'0 0.0
2015-May-20 09:34N 47°34' W 122°22'0 0.0
2015-May-20 09:30N 47°34' W 122°22'0 0.0
2015-May-20 08:33N 47°34' W 122°22'0 0.0
2015-May-20 08:29N 47°34' W 122°22'0 0.0
2015-May-20 07:33N 47°34' W 122°22'0 0.0
2015-May-20 07:29N 47°34' W 122°22'0 0.0
2015-May-20 06:33N 47°34' W 122°22'0 0.0
2015-May-20 06:33N 47°34' W 122°22'0 0.0
2015-May-20 06:13N 47°34' W 122°22'0 0.0
2015-May-20 05:33N 47°34' W 122°22'0 0.0
2015-May-20 04:33N 47°34' W 122°22'0 0.0
2015-May-20 04:33N 47°34' W 122°22'0 0.0
2015-May-20 03:33N 47°34' W 122°22'0 0.0
2015-May-20 03:33N 47°34' W 122°22'0 0.0
2015-May-20 02:34N 47°34' W 122°22'0 0.0
2015-May-20 02:33N 47°34' W 122°22'0 0.0
2015-May-20 01:33N 47°34' W 122°22'0 0.0
2015-May-20 01:33N 47°34' W 122°22'1 1.3
2015-May-20 00:33N 47°36' W 122°22'0 2.9
2015-May-20 00:32N 47°36' W 122°22'6 5.9
2015-May-19 23:34N 47°40' W 122°28'0 7.0
2015-May-19 23:32N 47°40' W 122°28'7 7.3
2015-May-19 22:34N 47°47' W 122°27'0 7.5
2015-May-19 22:31N 47°47' W 122°27'7 7.4
2015-May-19 21:34N 47°54' W 122°30'7 7.4
2015-May-19 20:33N 47°60' W 122°37'13 5.5
2015-May-19 18:06N 48°11' W 122°48'2 3.2
2015-May-19 17:30N 48°13' W 122°50'8 7.3
2015-May-19 16:23N 48°21' W 122°47'7 8.7
2015-May-19 15:34N 48°28' W 122°45'9 9.3
2015-May-19 14:33N 48°37' W 122°45'7 7.1
2015-May-19 13:34N 48°44' W 122°46'7 7.1
2015-May-19 12:33N 48°48' W 122°55'8 7.8
2015-May-19 11:34N 48°52' W 123°05'7 7.3
2015-May-19 10:33N 48°57' W 123°14'7 6.9
2015-May-19 09:34N 49°01' W 123°21'7 6.8
2015-May-19 08:33N 49°08' W 123°26'8 7.9
2015-May-19 07:34N 49°15' W 123°27'8 7.5
2015-May-19 06:33N 49°23' W 123°26'6 6.4
2015-May-19 05:34N 49°29' W 123°28'2 0.4
2015-May-18 23:28N 49°31' W 123°29'0 0.0
2015-May-18 20:05N 49°31' W 123°29'0 0.0
2015-May-18 19:26N 49°31' W 123°29'0 0.0
2015-May-18 18:32N 49°31' W 123°29'0 0.0
2015-May-18 17:33N 49°31' W 123°29'0 0.0
2015-May-18 16:29N 49°31' W 123°29'0 0.0
2015-May-18 15:33N 49°31' W 123°29'0 0.0
2015-May-18 14:27N 49°31' W 123°29'3 3.7
2015-May-18 13:33N 49°28' W 123°28'6 6.4
2015-May-18 12:32N 49°21' W 123°26'10 8.0
2015-May-18 11:21N 49°12' W 123°28'9 7.5
2015-May-18 10:10N 49°05' W 123°20'13 7.9
2015-May-18 08:33N 48°56' W 123°07'8 8.0
2015-May-18 07:33N 48°51' W 122°57'8 7.9
2015-May-18 06:34N 48°46' W 122°47'7 7.5
2015-May-18 05:34N 48°39' W 122°43'6 6.3
2015-May-18 04:34N 48°33' W 122°45'8 7.7
2015-May-18 03:33N 48°25' W 122°44'22 7.1
2015-May-18 00:32N 48°04' W 122°38'6 7.0
2015-May-17 23:38N 47°58' W 122°34'1 7.1
2015-May-17 23:33N 47°58' W 122°34'0 0.0
2015-May-17 23:33N 47°58' W 122°34'7 7.3
2015-May-17 22:34N 47°52' W 122°28'1 7.7
2015-May-17 22:28N 47°51' W 122°27'8 8.5
2015-May-17 21:34N 47°44' W 122°26'0 7.9
2015-May-17 21:32N 47°44' W 122°26'7 7.2
2015-May-17 20:34N 47°37' W 122°23'0 7.4
2015-May-17 20:32N 47°37' W 122°23'2 0.1
2015-May-16 05:33N 47°34' W 122°22'0 0.0
2015-May-16 05:32N 47°34' W 122°22'3 2.8
2015-May-16 04:33N 47°37' W 122°24'0 6.0
2015-May-16 04:31N 47°37' W 122°24'6 5.8
2015-May-16 03:33N 47°42' W 122°28'0 6.5
2015-May-16 03:31N 47°42' W 122°28'6 6.3
2015-May-16 02:33N 47°48' W 122°28'0 6.5
2015-May-16 02:31N 47°48' W 122°28'6 6.4
2015-May-16 01:33N 47°54' W 122°30'1 5.2
2015-May-16 01:19N 47°55' W 122°31'4 5.5
2015-May-16 00:33N 47°58' W 122°36'6 5.9
2015-May-15 23:33N 48°04' W 122°39'3 0.3
2015-May-15 11:17N 48°07' W 122°40'6 7.8
2015-May-15 10:29N 48°01' W 122°37'7 7.2
2015-May-15 09:33N 47°56' W 122°30'8 7.6
2015-May-15 08:33N 47°49' W 122°27'8 7.6
2015-May-15 07:33N 47°41' W 122°27'7 6.8
2015-May-15 06:33N 47°36' W 122°22'  
2015-May-12 10:14N 47°34' W 122°22'0 0.0
2015-May-12 10:11N 47°34' W 122°22'1 2.2
2015-May-12 09:33N 47°36' W 122°22'0 2.7
2015-May-12 09:30N 47°36' W 122°23'6 6.4
2015-May-12 08:34N 47°40' W 122°28'0 6.2
2015-May-12 08:30N 47°41' W 122°28'7 7.2
2015-May-12 07:34N 47°48' W 122°28'0 6.9
2015-May-12 07:30N 47°48' W 122°28'7 7.5
2015-May-12 06:34N 47°55' W 122°30'0 7.0
2015-May-12 06:30N 47°55' W 122°31'  

Dump ship's entire track history